createdAt,value
2022-11-12T00:00:26.756Z,14.13
2022-11-12T00:03:15.252Z,13.77
2022-11-12T00:06:01.132Z,12.57
2022-11-12T00:08:47.160Z,13.55
2022-11-12T00:11:32.913Z,12.35
2022-11-12T00:14:20.189Z,13.43
2022-11-12T00:17:08.541Z,14.38
2022-11-12T00:19:55.012Z,12.27
2022-11-12T00:22:40.734Z,12.82
2022-11-12T00:25:27.539Z,13.38
2022-11-12T00:28:13.310Z,12.68
2022-11-12T00:30:59.163Z,12.25
2022-11-12T00:33:44.964Z,12.40
2022-11-12T00:36:31.112Z,12.95
2022-11-12T00:39:16.760Z,13.30
2022-11-12T00:42:05.456Z,13.15
2022-11-12T00:44:51.306Z,13.38
2022-11-12T00:47:36.973Z,13.77
2022-11-12T00:50:22.937Z,13.30
2022-11-12T00:53:08.829Z,12.00
2022-11-12T00:55:54.426Z,12.05
2022-11-12T00:58:40.156Z,11.35
2022-11-12T01:01:26.199Z,12.00
2022-11-12T01:04:12.070Z,13.68
2022-11-12T01:06:57.616Z,13.48
2022-11-12T01:09:43.228Z,13.38
2022-11-12T01:12:31.673Z,12.30
2022-11-12T01:15:17.705Z,12.63
2022-11-12T01:18:03.455Z,12.90
2022-11-12T01:23:37.794Z,13.20
2022-11-12T01:26:23.709Z,12.65
2022-11-12T01:29:09.350Z,14.50
2022-11-12T01:34:40.751Z,12.32
2022-11-12T01:37:26.846Z,13.32
2022-11-12T01:40:12.755Z,12.45
2022-11-12T01:45:49.962Z,12.65
2022-11-12T01:48:40.177Z,11.82
2022-11-12T01:51:31.182Z,11.15
2022-11-12T01:54:20.289Z,10.82
2022-11-12T01:57:07.192Z,12.60
2022-11-12T01:59:58.575Z,12.13
2022-11-12T02:02:49.998Z,11.07
2022-11-12T02:05:39.077Z,12.32
2022-11-12T02:08:27.580Z,13.65
2022-11-12T02:11:16.577Z,11.68
2022-11-12T02:14:02.791Z,14.07
2022-11-12T02:16:49.477Z,14.45
2022-11-12T02:19:38.179Z,12.13
2022-11-12T02:22:23.615Z,12.10
2022-11-12T02:25:15.058Z,13.35
2022-11-12T02:28:02.774Z,11.95
2022-11-12T02:30:50.008Z,10.45
2022-11-12T02:33:35.655Z,12.77
2022-11-12T02:36:21.461Z,11.95
2022-11-12T02:39:07.809Z,11.15
2022-11-12T02:41:53.188Z,10.45
2022-11-12T02:44:38.860Z,11.27
2022-11-12T02:47:26.847Z,10.40
2022-11-12T02:50:12.942Z,11.05
2022-11-12T02:52:58.672Z,9.10
2022-11-12T02:58:30.813Z,10.38
2022-11-12T03:01:16.983Z,10.20
2022-11-12T03:06:50.886Z,10.45
2022-11-12T03:09:36.553Z,11.88
2022-11-12T03:12:22.470Z,11.48
2022-11-12T03:15:08.721Z,11.98
2022-11-12T03:17:54.649Z,11.65
2022-11-12T03:20:39.920Z,11.55
2022-11-12T03:23:27.134Z,12.80
2022-11-12T03:26:12.403Z,10.82
2022-11-12T03:28:58.860Z,12.13
2022-11-12T03:31:44.910Z,11.05
2022-11-12T03:34:32.374Z,10.60
2022-11-12T03:37:19.414Z,11.05
2022-11-12T03:40:05.812Z,11.73
2022-11-12T03:42:52.769Z,11.38
2022-11-12T03:45:42.398Z,11.55
2022-11-12T03:48:28.587Z,12.43
2022-11-12T03:51:16.470Z,12.57
2022-11-12T03:54:01.887Z,13.18
2022-11-12T03:56:47.897Z,11.48
2022-11-12T03:59:33.043Z,11.82
2022-11-12T04:02:18.739Z,13.10
2022-11-12T04:05:24.418Z,12.43
2022-11-12T04:08:35.767Z,15.65
2022-11-12T04:11:21.557Z,13.63
2022-11-12T04:14:07.173Z,12.63
2022-11-12T04:17:11.518Z,14.15
2022-11-12T04:20:16.235Z,13.18
2022-11-12T04:23:02.062Z,13.40
2022-11-12T04:26:05.827Z,13.18
2022-11-12T04:29:10.365Z,11.57
2022-11-12T04:31:56.941Z,11.93
2022-11-12T04:34:43.847Z,14.75
2022-11-12T04:37:44.687Z,14.02
2022-11-12T04:40:49.883Z,13.18
2022-11-12T04:43:54.231Z,13.50
2022-11-12T04:46:39.942Z,12.90
2022-11-12T04:49:25.324Z,12.30
2022-11-12T04:52:11.160Z,11.35
2022-11-12T04:54:57.074Z,11.27
2022-11-12T04:57:42.796Z,12.95
2022-11-12T05:00:28.880Z,11.55
2022-11-12T05:03:14.536Z,12.20
2022-11-12T05:06:27.431Z,12.85
2022-11-12T05:09:12.889Z,11.73
2022-11-12T05:11:58.846Z,12.05
2022-11-12T05:14:44.486Z,11.75
2022-11-12T05:17:30.228Z,12.00
2022-11-12T05:20:15.861Z,11.40
2022-11-12T05:23:08.225Z,12.65
2022-11-12T05:25:53.912Z,11.75
2022-11-12T05:31:25.327Z,14.25
2022-11-12T05:34:11.261Z,12.63
2022-11-12T05:36:57.708Z,13.73
2022-11-12T05:42:29.123Z,13.13
2022-11-12T05:45:14.648Z,13.02
2022-11-12T05:48:00.105Z,13.05
2022-11-12T05:51:11.206Z,12.65
2022-11-12T05:53:51.469Z,23.70
2022-11-12T05:56:37.458Z,13.23
2022-11-12T05:59:23.214Z,13.63
2022-11-12T06:02:08.620Z,13.02
2022-11-12T06:04:54.151Z,14.18
2022-11-12T06:07:39.942Z,14.80
2022-11-12T06:10:26.184Z,14.20
2022-11-12T06:13:12.032Z,14.52
2022-11-12T06:15:57.859Z,13.52
2022-11-12T06:21:52.227Z,12.55
2022-11-12T06:24:49.840Z,12.05
2022-11-12T06:27:37.286Z,13.48
2022-11-12T06:30:27.794Z,12.85
2022-11-12T06:33:16.361Z,13.77
2022-11-12T06:36:05.858Z,12.82
2022-11-12T06:38:51.949Z,13.60
2022-11-12T06:41:54.890Z,13.45
2022-11-12T06:44:40.811Z,13.02
2022-11-12T06:50:13.845Z,13.73
2022-11-12T06:53:00.099Z,12.63
2022-11-12T06:55:45.779Z,13.68
2022-11-12T06:58:32.159Z,13.48
2022-11-12T07:01:18.232Z,14.57
2022-11-12T07:06:50.486Z,14.57
2022-11-12T07:09:36.129Z,14.10
2022-11-12T07:12:22.115Z,13.27
2022-11-12T07:15:11.485Z,14.20
2022-11-12T07:17:57.662Z,13.73
2022-11-12T07:20:43.211Z,15.85
2022-11-12T07:23:31.101Z,15.43
2022-11-12T07:26:19.329Z,15.20
2022-11-12T07:29:05.365Z,14.82
2022-11-12T07:31:51.182Z,16.98
2022-11-12T07:34:36.889Z,16.38
2022-11-12T07:40:10.538Z,14.93
2022-11-12T07:42:56.616Z,14.77
2022-11-12T07:45:43.812Z,15.00
2022-11-12T07:48:39.381Z,15.18
2022-11-12T07:51:29.067Z,15.00
2022-11-12T07:54:51.174Z,14.68
2022-11-12T07:57:39.375Z,13.73
2022-11-12T08:00:28.233Z,15.60
2022-11-12T08:03:22.699Z,14.93
2022-11-12T08:06:08.595Z,14.50
2022-11-12T08:08:57.801Z,14.68
2022-11-12T08:11:43.849Z,13.23
2022-11-12T08:14:30.236Z,14.05
2022-11-12T08:17:20.201Z,14.77
2022-11-12T08:20:07.905Z,13.77
2022-11-12T08:22:54.959Z,14.70
2022-11-12T08:25:46.366Z,14.90
2022-11-12T08:28:34.994Z,15.15
2022-11-12T08:31:23.358Z,14.13
2022-11-12T08:34:20.110Z,14.43
2022-11-12T08:37:09.227Z,14.45
2022-11-12T08:39:55.987Z,14.13
2022-11-12T08:42:42.628Z,14.43
2022-11-12T08:45:30.405Z,15.02
2022-11-12T08:48:16.832Z,15.25
2022-11-12T08:51:04.759Z,13.70
2022-11-12T08:53:59.444Z,14.45
2022-11-12T08:56:47.166Z,12.45
2022-11-12T08:59:34.644Z,14.35
2022-11-12T09:02:25.409Z,12.30
2022-11-12T09:05:12.313Z,12.73
2022-11-12T09:08:08.672Z,14.30
2022-11-12T09:11:01.177Z,13.82
2022-11-12T09:13:47.923Z,14.50
2022-11-12T09:16:33.995Z,12.75
2022-11-12T09:22:05.742Z,14.70
2022-11-12T09:24:54.780Z,12.70
2022-11-12T09:27:43.194Z,14.13
2022-11-12T09:30:33.372Z,13.27
2022-11-12T09:36:06.410Z,13.98
2022-11-12T09:38:52.095Z,13.02
2022-11-12T09:41:38.777Z,13.38
2022-11-12T09:44:27.081Z,13.48
2022-11-12T09:47:38.263Z,12.20
2022-11-12T09:50:31.428Z,13.18
2022-11-12T09:53:23.031Z,12.43
2022-11-12T09:56:12.794Z,13.05
2022-11-12T09:58:59.394Z,11.75
2022-11-12T10:02:23.709Z,11.75
2022-11-12T10:05:46.025Z,11.20
2022-11-12T10:08:46.922Z,10.25
2022-11-12T10:12:03.898Z,9.88
2022-11-12T10:15:32.906Z,10.77
2022-11-12T10:18:30.573Z,9.90
2022-11-12T10:21:31.220Z,10.55
2022-11-12T10:24:17.483Z,9.27
2022-11-12T10:27:15.606Z,9.48
2022-11-12T10:30:07.066Z,9.18
2022-11-12T10:32:53.690Z,9.27
2022-11-12T10:35:40.508Z,10.90
2022-11-12T10:38:29.380Z,9.48
2022-11-12T10:41:22.461Z,9.77
2022-11-12T10:44:17.439Z,10.23
2022-11-12T10:47:33.284Z,8.82
2022-11-12T10:50:21.856Z,9.70
2022-11-12T10:53:12.944Z,9.80
2022-11-12T10:56:01.837Z,9.50
2022-11-12T10:59:18.453Z,10.05
2022-11-12T11:02:04.181Z,10.17
2022-11-12T11:04:50.374Z,9.30
2022-11-12T11:07:36.158Z,9.45
2022-11-12T11:10:36.201Z,9.38
2022-11-12T11:13:28.210Z,9.70
2022-11-12T11:16:17.520Z,10.13
2022-11-12T11:19:05.871Z,9.48
2022-11-12T11:21:51.450Z,9.55
2022-11-12T11:24:52.200Z,9.32
2022-11-12T11:27:56.540Z,9.55
2022-11-12T11:30:59.869Z,9.88
2022-11-12T11:34:11.142Z,9.73
2022-11-12T11:37:23.337Z,9.52
2022-11-12T11:40:25.951Z,8.82
2022-11-12T11:43:20.763Z,9.55
2022-11-12T11:46:15.496Z,9.27
2022-11-12T11:49:25.209Z,9.10
2022-11-12T11:52:42.963Z,8.63
2022-11-12T11:55:37.238Z,10.05
2022-11-12T11:58:52.846Z,8.40
2022-11-12T12:02:06.432Z,7.43
2022-11-12T12:05:02.871Z,8.10
2022-11-12T12:08:01.751Z,8.50
2022-11-12T12:11:08.145Z,8.80
2022-11-12T12:14:04.754Z,9.70
2022-11-12T12:17:09.121Z,8.00
2022-11-12T12:20:12.655Z,7.45
2022-11-12T12:23:04.961Z,9.02
2022-11-12T12:25:56.109Z,8.80
2022-11-12T12:29:17.440Z,8.55
2022-11-12T12:32:14.194Z,8.82
2022-11-12T12:35:14.236Z,8.88
2022-11-12T12:38:18.104Z,8.95
2022-11-12T12:41:29.077Z,9.55
2022-11-12T12:44:14.603Z,8.68
2022-11-12T12:47:02.292Z,8.40
2022-11-12T12:49:52.345Z,9.40
2022-11-12T12:53:16.054Z,8.32
2022-11-12T12:56:06.987Z,9.63
2022-11-12T12:58:53.247Z,9.82
2022-11-12T13:01:38.875Z,9.23
2022-11-12T13:05:03.191Z,9.70
2022-11-12T13:07:49.880Z,9.63
2022-11-12T13:10:44.636Z,9.23
2022-11-12T13:13:34.626Z,10.23
2022-11-12T13:17:00.315Z,10.82
2022-11-12T13:19:55.155Z,10.80
2022-11-12T13:22:40.471Z,12.50
2022-11-12T13:25:32.737Z,10.13
2022-11-12T13:28:18.740Z,10.70
2022-11-12T13:31:05.209Z,9.35
2022-11-12T13:33:51.515Z,9.90
2022-11-12T13:39:24.227Z,10.27
2022-11-12T13:42:33.509Z,10.27
2022-11-12T13:45:22.709Z,10.25
2022-11-12T13:48:32.391Z,9.70
2022-11-12T13:51:43.034Z,9.73
2022-11-12T13:54:28.468Z,10.05
2022-11-12T13:57:20.399Z,9.13
2022-11-12T14:00:19.323Z,9.88
2022-11-12T14:03:08.369Z,11.05
2022-11-12T14:05:55.809Z,9.52
2022-11-12T14:08:50.118Z,10.38
2022-11-12T14:12:00.024Z,10.93
2022-11-12T14:14:48.265Z,8.65
2022-11-12T14:18:27.352Z,11.07
2022-11-12T14:21:17.248Z,11.02
2022-11-12T14:24:04.593Z,11.70
2022-11-12T14:26:53.294Z,11.32
2022-11-12T14:29:43.356Z,10.45
2022-11-12T14:32:36.019Z,13.25
2022-11-12T14:35:26.659Z,14.20
2022-11-12T14:38:20.959Z,11.18
2022-11-12T14:41:21.205Z,12.60
2022-11-12T14:44:15.757Z,13.18
2022-11-12T14:47:02.900Z,12.45
2022-11-12T14:49:50.219Z,10.38
2022-11-12T14:52:42.134Z,10.07
2022-11-12T14:55:33.496Z,9.35
2022-11-12T14:58:20.860Z,10.43
2022-11-12T15:05:04.161Z,10.63
2022-11-12T15:08:11.973Z,10.00
2022-11-12T15:11:18.837Z,7.43
2022-11-12T15:14:11.153Z,7.35
2022-11-12T15:16:56.508Z,7.72
2022-11-12T15:19:50.638Z,8.65
2022-11-12T15:22:36.674Z,11.32
2022-11-12T15:25:25.325Z,8.82
2022-11-12T15:28:21.984Z,9.00
2022-11-12T15:31:19.768Z,8.40
2022-11-12T15:34:23.911Z,7.85
2022-11-12T15:37:13.177Z,7.40
2022-11-12T15:40:03.176Z,8.63
2022-11-12T15:42:49.967Z,8.50
2022-11-12T15:48:22.105Z,8.10
2022-11-12T15:51:10.707Z,7.65
2022-11-12T15:53:56.477Z,7.00
2022-11-12T15:56:42.024Z,8.23
2022-11-12T15:59:30.250Z,8.30
2022-11-12T16:02:15.886Z,8.57
2022-11-12T16:05:01.470Z,9.00
2022-11-12T16:07:46.876Z,9.00
2022-11-12T16:14:25.165Z,8.73
2022-11-12T16:17:21.738Z,8.18
2022-11-12T16:20:19.242Z,8.60
2022-11-12T16:23:05.291Z,8.13
2022-11-12T16:25:50.455Z,8.27
2022-11-12T16:28:36.018Z,8.35
2022-11-12T16:31:22.083Z,8.32
2022-11-12T16:34:07.253Z,8.93
2022-11-12T16:36:55.910Z,8.45
2022-11-12T16:39:42.189Z,9.00
2022-11-12T16:42:31.814Z,7.85
2022-11-12T16:45:22.072Z,8.73
2022-11-12T16:48:20.946Z,8.07
2022-11-12T16:51:11.263Z,8.05
2022-11-12T16:53:57.186Z,9.18
2022-11-12T16:56:45.561Z,8.30
2022-11-12T16:59:33.874Z,7.97
2022-11-12T17:02:19.623Z,7.93
2022-11-12T17:07:58.081Z,7.38
2022-11-12T17:10:47.354Z,8.30
2022-11-12T17:13:38.835Z,8.15
2022-11-12T17:16:37.403Z,7.57
2022-11-12T17:19:25.702Z,7.72
2022-11-12T17:22:11.986Z,8.23
2022-11-12T17:24:57.766Z,8.80
2022-11-12T17:27:44.453Z,8.15
2022-11-12T17:30:36.840Z,7.70
2022-11-12T17:33:23.160Z,10.55
2022-11-12T17:36:16.272Z,7.72
2022-11-12T17:39:04.098Z,8.43
2022-11-12T17:41:49.995Z,7.95
2022-11-12T17:44:35.568Z,8.02
2022-11-12T17:47:22.120Z,8.88
2022-11-12T17:50:16.262Z,8.52
2022-11-12T17:53:02.030Z,8.35
2022-11-12T17:58:34.993Z,8.27
2022-11-12T18:01:36.715Z,8.45
2022-11-12T18:04:27.519Z,8.55
2022-11-12T18:07:18.632Z,9.02
2022-11-12T18:10:05.051Z,8.35
2022-11-12T18:12:52.677Z,8.48
2022-11-12T18:15:47.262Z,8.98
2022-11-12T18:22:44.916Z,7.82
2022-11-12T18:26:18.396Z,8.60
2022-11-12T18:29:11.151Z,9.13
2022-11-12T18:32:39.794Z,9.48
2022-11-12T18:35:38.932Z,8.80
2022-11-12T18:39:44.439Z,8.95
2022-11-12T18:42:48.767Z,9.38
2022-11-12T18:46:29.947Z,9.80
2022-11-12T18:49:48.415Z,9.35
2022-11-12T18:52:42.472Z,9.98
2022-11-12T18:55:56.897Z,8.93
2022-11-12T18:58:55.052Z,9.57
2022-11-12T19:01:57.293Z,9.40
2022-11-12T19:04:47.194Z,8.32
2022-11-12T19:07:42.241Z,8.60
2022-11-12T19:10:28.194Z,8.98
2022-11-12T19:13:13.970Z,8.75
2022-11-12T19:16:05.182Z,8.75
2022-11-12T19:19:03.438Z,8.50
2022-11-12T19:21:50.628Z,9.15
2022-11-12T19:24:36.782Z,8.48
2022-11-12T19:27:28.349Z,9.05
2022-11-12T19:30:39.863Z,9.35
2022-11-12T19:33:28.469Z,7.95
2022-11-12T19:36:16.678Z,8.43
2022-11-12T19:39:07.620Z,7.97
2022-11-12T19:41:55.266Z,7.05
2022-11-12T19:44:44.242Z,9.18
2022-11-12T19:47:36.279Z,7.93
2022-11-12T19:50:24.665Z,7.55
2022-11-12T19:53:11.208Z,8.05
2022-11-12T19:56:05.594Z,7.32
2022-11-12T19:58:55.122Z,7.70
2022-11-12T20:01:43.736Z,6.78
2022-11-12T20:04:34.637Z,7.32
2022-11-12T20:07:35.719Z,6.93
2022-11-12T20:10:24.422Z,6.15
2022-11-12T20:13:10.491Z,6.60
2022-11-12T20:18:47.330Z,5.55
2022-11-12T20:21:36.714Z,5.95
2022-11-12T20:27:09.348Z,5.03
2022-11-12T20:29:55.233Z,5.88
2022-11-12T20:32:40.959Z,4.97
2022-11-12T20:35:27.185Z,4.93
2022-11-12T20:38:12.950Z,4.70
2022-11-12T20:41:05.002Z,4.45
2022-11-12T20:43:55.545Z,4.93
2022-11-12T20:46:40.975Z,4.80
2022-11-12T20:49:26.620Z,4.90
2022-11-12T20:52:14.686Z,4.65
2022-11-12T20:55:04.827Z,4.95
2022-11-12T20:57:50.833Z,4.65
2022-11-12T21:00:38.985Z,5.47
2022-11-12T21:03:25.431Z,5.20
2022-11-12T21:09:04.337Z,4.82
2022-11-12T21:11:50.539Z,4.63
2022-11-12T21:14:42.831Z,4.85
2022-11-12T21:17:36.475Z,5.80
2022-11-12T21:20:26.680Z,5.50
2022-11-12T21:23:12.918Z,5.28
2022-11-12T21:26:04.724Z,4.88
2022-11-12T21:28:53.169Z,4.65
2022-11-12T21:31:38.908Z,4.95
2022-11-12T21:34:26.416Z,5.10
2022-11-12T21:37:12.047Z,4.13
2022-11-12T21:40:00.806Z,4.07
2022-11-12T21:42:50.917Z,4.20
2022-11-12T21:45:39.029Z,4.25
2022-11-12T21:48:25.009Z,3.55
2022-11-12T21:51:23.425Z,4.43
2022-11-12T21:54:11.678Z,3.55
2022-11-12T21:57:00.090Z,4.05
2022-11-12T21:59:46.094Z,4.10
2022-11-12T22:02:31.992Z,4.38
2022-11-12T22:05:19.446Z,3.80
2022-11-12T22:08:05.652Z,4.03
2022-11-12T22:13:40.395Z,4.03
2022-11-12T22:16:29.823Z,3.80
2022-11-12T22:19:16.524Z,3.35
2022-11-12T22:22:02.772Z,3.03
2022-11-12T22:24:48.479Z,3.15
2022-11-12T22:27:34.576Z,3.28
2022-11-12T22:33:06.637Z,3.40
2022-11-12T22:38:43.528Z,3.75
2022-11-12T22:41:31.571Z,3.58
2022-11-12T22:44:20.246Z,3.45
2022-11-12T22:47:06.440Z,3.47
2022-11-12T22:49:53.641Z,3.58
2022-11-12T22:52:47.248Z,3.65
2022-11-12T22:55:36.711Z,3.35
2022-11-12T22:58:23.386Z,3.40
2022-11-12T23:01:24.054Z,3.25
2022-11-12T23:04:10.741Z,3.10
2022-11-12T23:07:03.294Z,3.15
2022-11-12T23:09:49.701Z,3.40
2022-11-12T23:12:37.761Z,3.10
2022-11-12T23:15:29.194Z,4.03
2022-11-12T23:18:16.457Z,3.50
2022-11-12T23:21:16.470Z,3.67
2022-11-12T23:24:02.134Z,3.03
2022-11-12T23:29:35.838Z,3.28
2022-11-12T23:32:21.416Z,3.05
2022-11-12T23:35:13.280Z,3.33
2022-11-12T23:38:02.863Z,2.28
2022-11-12T23:40:56.358Z,2.60
2022-11-12T23:43:44.387Z,2.40
2022-11-12T23:46:32.191Z,2.47
2022-11-12T23:49:19.169Z,2.40
2022-11-12T23:52:04.960Z,3.13
2022-11-12T23:54:50.871Z,2.33
